Time;durP1;ratioP1;P1;durP2;ratioP2;P2;SDS_P1;SDS_P2;PMS_P1;PMS_P2;Temp;Humidity;BMP_temperature;BMP_pressure;BME280_temperature;BME280_humidity;BME280_pressure;Samples;Min_cycle;Max_cycle;Signal;HPM_P1;HPM_P2
2023/05/09 00:02:13;;;;;;;5.60;5.30;;;14.80;99.90;;;;;;4915593;29;20622;-55
2023/05/09 00:04:41;;;;;;;6.20;5.80;;;14.70;99.90;;;;;;4911914;29;20731;-55
2023/05/09 00:07:09;;;;;;;5.60;5.30;;;14.80;99.90;;;;;;4915583;29;20737;-55
2023/05/09 00:09:37;;;;;;;5.87;5.47;;;14.80;99.90;;;;;;4914412;29;20213;-55
2023/05/09 00:12:05;;;;;;;5.50;5.20;;;14.80;99.90;;;;;;4915328;29;20650;-55
2023/05/09 00:14:33;;;;;;;6.50;6.03;;;14.70;99.90;;;;;;4912650;29;20199;-55
2023/05/09 00:17:00;;;;;;;4.70;4.40;;;14.70;99.90;;;;;;4909035;29;20199;-55
2023/05/09 00:19:27;;;;;;;5.13;4.83;;;14.60;99.90;;;;;;4914457;29;20206;-56
2023/05/09 00:21:54;;;;;;;5.20;4.90;;;14.50;99.90;;;;;;4915288;29;20206;-55
2023/05/09 00:24:21;;;;;;;6.60;6.13;;;14.50;99.90;;;;;;4915216;29;20310;-55
2023/05/09 00:26:49;;;;;;;6.20;5.60;;;14.50;99.90;;;;;;4910275;29;20788;-55
2023/05/09 00:29:16;;;;;;;6.70;6.30;;;14.50;99.90;;;;;;4913012;29;20231;-54
2023/05/09 00:31:43;;;;;;;6.87;6.40;;;14.50;99.90;;;;;;4915148;29;20206;-55
2023/05/09 00:34:10;;;;;;;6.70;6.30;;;14.50;99.90;;;;;;4914810;29;20577;-55
2023/05/09 00:36:37;;;;;;;5.27;4.60;;;14.50;99.90;;;;;;4914865;29;20664;-55
2023/05/09 00:39:05;;;;;;;7.00;6.33;;;14.50;99.90;;;;;;4915297;29;20589;-55
2023/05/09 00:41:32;;;;;;;5.17;4.77;;;14.50;99.90;;;;;;4909116;29;20203;-55
2023/05/09 00:44:00;;;;;;;5.50;5.20;;;14.50;99.90;;;;;;4914684;29;20371;-55
2023/05/09 00:46:27;;;;;;;4.80;4.40;;;14.50;99.90;;;;;;4914805;29;20294;-55
2023/05/09 00:48:55;;;;;;;4.63;4.37;;;14.50;99.90;;;;;;4915203;29;20206;-55
2023/05/09 00:51:22;;;;;;;4.97;4.77;;;14.50;99.90;;;;;;4914742;29;20218;-55
2023/05/09 00:53:49;;;;;;;5.67;5.37;;;14.60;99.90;;;;;;4909703;29;20267;-55
2023/05/09 00:56:17;;;;;;;5.80;5.50;;;14.60;99.90;;;;;;4912353;29;20218;-55
2023/05/09 00:58:44;;;;;;;5.77;5.27;;;14.50;99.90;;;;;;4913330;29;20222;-55
2023/05/09 01:01:12;;;;;;;5.67;5.27;;;14.60;99.90;;;;;;4914452;29;20199;-55
2023/05/09 01:03:40;;;;;;;6.40;6.03;;;14.50;99.90;;;;;;4913247;29;20234;-55
2023/05/09 01:06:16;;;;;;;6.00;5.50;;;14.60;99.90;;;;;;4913218;29;20308;-55
2023/05/09 01:08:47;;;;;;;4.90;4.60;;;14.50;99.90;;;;;;4908655;29;20692;-55
2023/05/09 01:11:22;;;;;;;5.57;5.27;;;14.50;99.90;;;;;;4914740;29;20678;-55
2023/05/09 01:13:59;;;;;;;5.47;5.27;;;14.40;99.90;;;;;;4910860;29;20253;-55
2023/05/09 01:16:35;;;;;;;5.27;4.97;;;14.40;99.90;;;;;;4914296;29;20230;-55
2023/05/09 01:19:17;;;;;;;5.40;4.87;;;14.40;99.90;;;;;;4910924;29;20693;-55
2023/05/09 01:21:48;;;;;;;5.47;5.17;;;14.40;99.90;;;;;;4908668;29;20235;-55
2023/05/09 01:24:56;;;;;;;5.97;5.60;;;14.40;99.90;;;;;;4914342;29;20230;-55
2023/05/09 01:27:34;;;;;;;5.93;5.57;;;14.40;99.90;;;;;;4914473;29;20206;-55
2023/05/09 01:30:05;;;;;;;5.50;5.00;;;14.40;99.90;;;;;;4908322;29;20254;-55
2023/05/09 01:32:37;;;;;;;5.90;5.47;;;14.40;99.90;;;;;;4913053;29;20211;-55
2023/05/09 01:35:06;;;;;;;6.40;6.00;;;14.40;99.90;;;;;;4913975;29;20654;-55
2023/05/09 01:37:39;;;;;;;7.17;5.90;;;14.40;99.90;;;;;;4912276;29;20203;-55
2023/05/09 01:40:10;;;;;;;5.70;5.40;;;14.40;99.90;;;;;;4914118;29;20199;-55
2023/05/09 01:42:42;;;;;;;6.60;6.10;;;14.40;99.90;;;;;;4914185;29;20537;-55
2023/05/09 01:45:13;;;;;;;5.87;5.30;;;14.40;99.90;;;;;;4911953;29;20602;-55
2023/05/09 01:47:41;;;;;;;5.30;4.90;;;14.30;99.90;;;;;;4910487;29;20685;-55
2023/05/09 01:50:11;;;;;;;6.27;5.83;;;14.40;99.90;;;;;;4914222;29;20262;-55
2023/05/09 01:52:39;;;;;;;5.70;5.40;;;14.40;99.90;;;;;;4913929;29;20210;-55
2023/05/09 01:55:08;;;;;;;5.17;4.87;;;14.40;99.90;;;;;;4914082;29;20226;-55
2023/05/09 01:57:37;;;;;;;5.27;5.00;;;14.40;99.90;;;;;;4911616;29;20207;-55
2023/05/09 02:00:06;;;;;;;6.17;5.77;;;14.40;99.90;;;;;;4913663;29;20217;-55
2023/05/09 02:02:37;;;;;;;6.33;5.93;;;14.50;99.90;;;;;;4911368;29;20203;-55
2023/05/09 02:05:06;;;;;;;6.60;6.20;;;14.50;99.90;;;;;;4913671;29;20298;-55
2023/05/09 02:07:36;;;;;;;5.67;5.37;;;14.40;99.90;;;;;;4913826;29;20212;-55
2023/05/09 02:10:04;;;;;;;7.43;6.93;;;14.40;99.90;;;;;;4910923;29;20199;-55
2023/05/09 02:12:34;;;;;;;6.10;5.80;;;14.40;99.90;;;;;;4913337;29;20206;-55
2023/05/09 02:15:01;;;;;;;6.03;5.67;;;14.40;99.90;;;;;;4913924;29;20274;-55
2023/05/09 02:17:29;;;;;;;6.43;6.10;;;14.40;99.90;;;;;;4914288;29;20213;-55
2023/05/09 02:19:58;;;;;;;6.63;6.23;;;14.40;99.90;;;;;;4904480;29;20286;-55
2023/05/09 02:22:25;;;;;;;6.87;6.37;;;14.40;99.90;;;;;;4911426;29;20203;-55
2023/05/09 02:24:52;;;;;;;5.13;4.93;;;14.40;99.90;;;;;;4912355;29;20332;-55
2023/05/09 02:27:20;;;;;;;5.07;4.80;;;14.40;99.90;;;;;;4913660;29;20202;-55
2023/05/09 02:29:50;;;;;;;6.60;6.10;;;14.40;99.90;;;;;;4896365;29;20347;-55
2023/05/09 02:32:21;;;;;;;5.77;5.37;;;14.40;99.90;;;;;;4892849;29;20286;-55
2023/05/09 02:34:50;;;;;;;5.47;5.17;;;14.40;99.90;;;;;;4897931;29;20219;-55
2023/05/09 02:37:20;;;;;;;6.43;5.60;;;14.30;99.90;;;;;;4906935;29;20770;-55
2023/05/09 02:39:47;;;;;;;6.93;6.53;;;14.40;99.90;;;;;;4913610;29;20234;-55
2023/05/09 02:42:21;;;;;;;5.20;4.90;;;14.30;99.90;;;;;;4915179;29;20210;-55
2023/05/09 02:44:48;;;;;;;4.97;4.77;;;14.30;99.90;;;;;;4916982;29;20293;-55
2023/05/09 02:47:15;;;;;;;5.47;5.03;;;14.30;99.90;;;;;;4910202;29;20259;-55
2023/05/09 02:49:42;;;;;;;6.17;5.67;;;14.40;99.90;;;;;;4916919;29;20199;-55
2023/05/09 02:52:09;;;;;;;6.13;5.83;;;14.30;99.90;;;;;;4917014;29;20241;-55
2023/05/09 02:54:38;;;;;;;4.97;4.57;;;14.40;99.90;;;;;;4910789;29;20199;-55
2023/05/09 02:57:05;;;;;;;5.07;4.67;;;14.40;99.90;;;;;;4917111;29;20269;-55
2023/05/09 02:59:32;;;;;;;5.10;4.90;;;14.30;99.90;;;;;;4914912;29;20591;-55
2023/05/09 03:01:59;;;;;;;5.07;4.77;;;14.40;99.90;;;;;;4912871;29;20199;-55
2023/05/09 03:04:26;;;;;;;5.63;5.37;;;14.40;99.90;;;;;;4916305;29;20311;-55
2023/05/09 03:06:53;;;;;;;6.17;5.70;;;14.40;99.90;;;;;;4916510;29;20210;-55
2023/05/09 03:09:20;;;;;;;4.83;4.43;;;14.40;99.90;;;;;;4914828;29;20223;-55
2023/05/09 03:11:49;;;;;;;6.20;5.80;;;14.40;99.90;;;;;;4915465;29;20230;-55
2023/05/09 03:14:17;;;;;;;7.33;6.40;;;14.40;99.90;;;;;;4915671;29;20266;-55
2023/05/09 03:16:44;;;;;;;7.50;7.00;;;14.40;99.90;;;;;;4916262;29;20578;-55
2023/05/09 03:19:11;;;;;;;4.73;4.50;;;14.40;99.90;;;;;;4910227;29;20258;-55
2023/05/09 03:21:38;;;;;;;6.13;5.73;;;14.40;99.90;;;;;;4916583;29;20206;-55
2023/05/09 03:24:06;;;;;;;5.87;5.53;;;14.40;99.90;;;;;;4916163;29;20265;-55
2023/05/09 03:26:35;;;;;;;6.90;6.43;;;14.40;99.90;;;;;;4907161;29;20230;-55
2023/05/09 03:29:04;;;;;;;6.13;5.73;;;14.40;99.90;;;;;;4912614;29;20225;-55
2023/05/09 03:31:31;;;;;;;6.37;5.97;;;14.30;99.90;;;;;;4916126;29;20648;-56
2023/05/09 03:33:58;;;;;;;5.87;5.57;;;14.30;99.90;;;;;;4915923;29;20321;-55
2023/05/09 03:36:25;;;;;;;7.20;5.53;;;14.30;99.90;;;;;;4916223;29;20229;-55
2023/05/09 03:38:52;;;;;;;6.47;5.90;;;14.30;99.90;;;;;;4914086;29;20269;-55
2023/05/09 03:41:19;;;;;;;5.73;5.43;;;14.40;99.90;;;;;;4914627;29;20242;-55
2023/05/09 03:43:46;;;;;;;6.07;5.67;;;14.30;99.90;;;;;;4914096;29;20214;-55
2023/05/09 03:46:14;;;;;;;6.57;6.07;;;14.30;99.90;;;;;;4909918;29;20230;-55
2023/05/09 03:48:41;;;;;;;6.37;6.07;;;14.30;99.90;;;;;;4908955;29;20207;-55
2023/05/09 03:51:08;;;;;;;6.87;6.10;;;14.30;99.90;;;;;;4911337;29;20262;-55
2023/05/09 03:53:35;;;;;;;7.83;7.17;;;14.30;99.90;;;;;;4914629;29;20254;-55
2023/05/09 03:56:02;;;;;;;6.33;5.93;;;14.30;99.90;;;;;;4916068;29;20244;-55
2023/05/09 03:58:29;;;;;;;7.33;6.70;;;14.30;99.90;;;;;;4916136;29;20214;-55
2023/05/09 04:00:56;;;;;;;7.10;6.60;;;14.30;99.90;;;;;;4912526;29;20218;-55
2023/05/09 04:03:25;;;;;;;7.93;7.30;;;14.30;99.90;;;;;;4906381;29;20261;-55
2023/05/09 04:05:53;;;;;;;6.10;5.70;;;14.30;99.90;;;;;;4911012;29;20223;-55
2023/05/09 04:08:20;;;;;;;7.30;6.70;;;14.20;99.90;;;;;;4914149;29;20207;-55
2023/05/09 04:10:47;;;;;;;7.23;6.60;;;14.30;99.90;;;;;;4911704;29;20211;-55
2023/05/09 04:13:15;;;;;;;7.03;6.53;;;14.30;99.90;;;;;;4913308;29;20215;-55
2023/05/09 04:15:42;;;;;;;7.40;6.80;;;14.30;99.90;;;;;;4913728;29;20244;-55
2023/05/09 04:18:09;;;;;;;7.10;6.50;;;14.20;99.90;;;;;;4913896;29;20198;-55
2023/05/09 04:20:38;;;;;;;7.43;6.87;;;14.30;99.90;;;;;;4910619;29;20207;-55
2023/05/09 04:23:05;;;;;;;8.00;7.00;;;14.30;99.90;;;;;;4935580;23;20245;-58
2023/05/09 04:25:33;;;;;;;7.80;7.30;;;14.20;99.90;;;;;;4915052;29;20252;-57
2023/05/09 04:28:00;;;;;;;8.30;7.57;;;14.20;99.90;;;;;;4914780;29;20676;-57
2023/05/09 04:30:27;;;;;;;8.17;7.37;;;14.20;99.90;;;;;;4915267;29;20213;-56
2023/05/09 04:32:54;;;;;;;7.63;7.20;;;14.20;99.90;;;;;;4913048;29;20689;-57
2023/05/09 04:35:22;;;;;;;8.07;7.47;;;14.20;99.90;;;;;;4894315;29;20203;-57
2023/05/09 04:37:51;;;;;;;7.20;6.67;;;14.20;99.90;;;;;;4896144;29;20298;-57
2023/05/09 04:40:18;;;;;;;7.67;7.07;;;14.30;99.90;;;;;;4896406;29;20204;-57
2023/05/09 04:42:45;;;;;;;7.03;6.37;;;14.20;99.90;;;;;;4892296;29;20687;-56
2023/05/09 04:45:13;;;;;;;8.83;8.13;;;14.30;99.90;;;;;;4895888;29;20634;-58
2023/05/09 04:47:40;;;;;;;9.10;7.33;;;14.20;99.90;;;;;;4900156;29;20677;-56
2023/05/09 04:50:08;;;;;;;9.67;8.03;;;14.20;99.90;;;;;;4895887;29;20666;-56
2023/05/09 04:52:35;;;;;;;6.87;6.37;;;14.20;99.90;;;;;;4896099;29;20299;-57
2023/05/09 04:55:03;;;;;;;6.10;5.60;;;14.20;99.90;;;;;;4895065;29;20284;-57
2023/05/09 04:57:30;;;;;;;6.37;5.87;;;14.20;99.90;;;;;;4887441;29;20208;-68
2023/05/09 04:59:57;;;;;;;9.05;8.35;;;14.20;99.90;;;;;;4875708;29;20468;-67
2023/05/09 05:02:25;;;;;;;6.77;6.27;;;14.20;99.90;;;;;;4890132;29;20251;-68
2023/05/09 05:04:52;;;;;;;6.73;6.13;;;14.10;99.90;;;;;;4901432;29;20226;-67
2023/05/09 05:07:19;;;;;;;6.70;6.30;;;14.10;99.90;;;;;;4895114;29;20200;-66
2023/05/09 05:09:46;;;;;;;6.00;5.50;;;14.10;99.90;;;;;;4886694;29;20299;-66
2023/05/09 05:12:14;;;;;;;10.37;5.90;;;14.20;99.90;;;;;;4893033;29;20218;-70
2023/05/09 05:14:41;;;;;;;5.13;4.83;;;14.20;99.90;;;;;;4891538;29;20306;-68
2023/05/09 05:17:08;;;;;;;5.53;4.97;;;14.30;99.90;;;;;;4893413;29;20207;-65
2023/05/09 05:19:35;;;;;;;4.50;4.27;;;14.30;99.90;;;;;;4895568;29;20262;-73
2023/05/09 05:22:02;;;;;;;4.23;4.03;;;14.20;99.90;;;;;;4882488;29;20263;-67
2023/05/09 05:24:29;;;;;;;3.73;3.63;;;14.30;99.90;;;;;;4878635;29;20306;-69
2023/05/09 05:26:56;;;;;;;3.67;3.47;;;14.30;99.90;;;;;;4890342;29;20247;-68
2023/05/09 05:29:25;;;;;;;3.37;3.20;;;14.20;99.90;;;;;;4886201;29;20267;-66
2023/05/09 05:31:52;;;;;;;3.90;3.40;;;14.20;99.90;;;;;;4892016;29;20199;-65
2023/05/09 05:34:19;;;;;;;4.50;3.73;;;14.30;99.90;;;;;;4895614;29;20223;-66
2023/05/09 05:36:46;;;;;;;3.43;3.33;;;14.30;99.90;;;;;;4887014;29;20207;-65
2023/05/09 05:39:13;;;;;;;4.93;3.63;;;14.40;99.90;;;;;;4890864;29;20203;-65
2023/05/09 05:41:40;;;;;;;3.93;3.63;;;14.50;99.90;;;;;;4885571;29;20943;-58
2023/05/09 05:44:07;;;;;;;4.10;3.77;;;14.50;99.90;;;;;;4886601;29;20741;-64
2023/05/09 05:46:35;;;;;;;4.67;3.70;;;14.60;99.90;;;;;;4885813;29;20223;-63
2023/05/09 05:49:02;;;;;;;4.60;4.30;;;14.50;99.90;;;;;;4893128;29;20278;-56
2023/05/09 05:51:29;;;;;;;5.53;4.60;;;14.50;99.90;;;;;;4878910;29;20231;-64
2023/05/09 05:53:56;;;;;;;4.87;4.37;;;14.60;99.90;;;;;;4891394;29;20230;-74
2023/05/09 05:56:23;;;;;;;5.87;5.33;;;14.60;99.90;;;;;;4886344;29;20873;-73
2023/05/09 05:58:50;;;;;;;6.60;4.43;;;14.70;99.90;;;;;;4886323;29;20219;-68
2023/05/09 06:01:17;;;;;;;5.73;4.63;;;14.70;99.90;;;;;;4887059;29;20204;-69
2023/05/09 06:03:46;;;;;;;3.90;3.60;;;14.80;99.90;;;;;;4890317;29;20219;-66
2023/05/09 06:06:13;;;;;;;4.40;4.10;;;14.90;99.90;;;;;;4891379;29;20609;-67
2023/05/09 06:08:40;;;;;;;4.73;4.27;;;14.80;99.90;;;;;;4891554;29;20206;-69
2023/05/09 06:11:07;;;;;;;4.07;3.77;;;14.80;99.90;;;;;;4890975;29;20207;-71
2023/05/09 06:13:34;;;;;;;6.03;3.83;;;14.80;99.90;;;;;;4887831;29;20223;-67
2023/05/09 06:16:02;;;;;;;3.47;3.17;;;14.80;99.90;;;;;;4886347;29;20203;-66
2023/05/09 06:18:29;;;;;;;5.70;3.00;;;14.90;99.90;;;;;;4897084;29;20239;-64
2023/05/09 06:20:57;;;;;;;4.37;2.93;;;15.00;99.90;;;;;;4880973;29;20208;-64
2023/05/09 06:23:24;;;;;;;2.63;2.53;;;15.00;99.90;;;;;;4880455;29;20381;-64
2023/05/09 06:25:51;;;;;;;3.27;3.07;;;15.10;99.90;;;;;;4880464;29;20224;-65
2023/05/09 06:28:18;;;;;;;3.17;3.00;;;15.10;99.90;;;;;;4881124;29;20216;-65
2023/05/09 06:30:45;;;;;;;3.20;3.10;;;15.20;99.90;;;;;;4880589;29;20256;-68
2023/05/09 06:33:12;;;;;;;3.07;2.83;;;15.40;99.90;;;;;;4880282;29;20231;-68
2023/05/09 06:35:39;;;;;;;2.67;2.57;;;15.40;99.90;;;;;;4883891;29;20207;-68
2023/05/09 06:38:07;;;;;;;2.13;2.10;;;15.50;99.90;;;;;;4899141;29;20211;-67
2023/05/09 06:40:34;;;;;;;6.23;5.07;;;15.60;99.90;;;;;;4899141;29;20661;-68
2023/05/09 06:43:01;;;;;;;3.50;3.20;;;15.70;99.90;;;;;;4898557;29;20680;-67
2023/05/09 06:45:29;;;;;;;3.37;2.00;;;15.70;99.90;;;;;;4897746;29;20235;-68
2023/05/09 06:47:56;;;;;;;3.53;2.70;;;15.70;99.90;;;;;;4900924;29;20207;-68
2023/05/09 06:50:23;;;;;;;2.57;2.30;;;15.70;99.90;;;;;;4908155;29;20211;-68
2023/05/09 06:52:50;;;;;;;2.10;2.00;;;15.70;99.90;;;;;;4910612;29;20206;-67
2023/05/09 06:55:19;;;;;;;2.07;1.97;;;15.90;99.90;;;;;;4885386;29;20199;-67
2023/05/09 06:57:46;;;;;;;1.93;1.93;;;16.00;99.90;;;;;;4897866;29;20285;-68
2023/05/09 07:00:14;;;;;;;1.73;1.63;;;16.30;99.90;;;;;;4902765;29;20218;-67
2023/05/09 07:02:41;;;;;;;1.97;1.87;;;16.40;99.90;;;;;;4895594;29;20204;-66
2023/05/09 07:05:09;;;;;;;2.50;1.93;;;16.50;99.90;;;;;;4895239;29;20305;-66
2023/05/09 07:07:36;;;;;;;2.37;1.97;;;16.60;99.90;;;;;;4897244;29;20298;-67
2023/05/09 07:10:04;;;;;;;1.60;1.50;;;16.70;99.90;;;;;;4897741;29;20286;-66
2023/05/09 07:12:36;;;;;;;1.97;1.83;;;16.80;99.90;;;;;;4897731;29;20675;-66
2023/05/09 07:15:03;;;;;;;1.30;1.30;;;16.80;99.90;;;;;;4894528;29;20219;-67
2023/05/09 07:17:34;;;;;;;1.70;1.70;;;16.90;99.90;;;;;;4896083;29;20238;-68
2023/05/09 07:20:02;;;;;;;1.60;1.20;;;17.00;99.90;;;;;;4895298;29;20739;-66
2023/05/09 07:22:29;;;;;;;1.13;0.97;;;17.10;99.90;;;;;;4896484;29;20576;-66
2023/05/09 07:24:56;;;;;;;2.67;1.30;;;17.00;99.90;;;;;;4896530;29;20264;-64
2023/05/09 07:27:23;;;;;;;2.43;2.23;;;17.10;99.90;;;;;;4895040;29;20685;-66
2023/05/09 07:29:52;;;;;;;2.00;1.90;;;17.10;99.90;;;;;;4902868;29;20224;-68
2023/05/09 07:32:18;;;;;;;2.43;1.83;;;17.00;99.90;;;;;;4893519;29;20260;-66
2023/05/09 07:34:46;;;;;;;2.37;2.23;;;17.00;99.90;;;;;;4891419;29;20226;-67
2023/05/09 07:37:13;;;;;;;2.67;2.47;;;17.10;99.90;;;;;;4894958;29;20203;-66
2023/05/09 07:39:40;;;;;;;3.93;2.37;;;17.30;99.90;;;;;;4895083;29;20199;-66
2023/05/09 07:42:07;;;;;;;2.70;2.50;;;17.50;99.90;;;;;;4897569;29;20203;-66
2023/05/09 07:44:34;;;;;;;2.17;1.97;;;17.50;99.90;;;;;;4895430;29;20227;-66
2023/05/09 07:47:04;;;;;;;2.30;2.17;;;17.50;99.90;;;;;;4890831;29;20599;-67
2023/05/09 07:49:31;;;;;;;2.67;2.47;;;17.70;99.90;;;;;;4894571;29;20207;-66
2023/05/09 07:51:58;;;;;;;2.87;2.57;;;17.80;99.90;;;;;;4892325;29;20215;-66
2023/05/09 07:54:25;;;;;;;2.30;2.20;;;17.60;99.90;;;;;;4884803;29;20223;-62
2023/05/09 07:56:53;;;;;;;2.70;2.60;;;17.80;99.90;;;;;;4896220;29;20199;-60
2023/05/09 07:59:20;;;;;;;3.00;2.90;;;17.90;99.90;;;;;;4896778;29;20207;-64
2023/05/09 08:01:47;;;;;;;2.40;1.83;;;18.00;99.90;;;;;;4890039;29;20282;-65
2023/05/09 08:04:15;;;;;;;2.33;2.23;;;17.90;99.90;;;;;;4882992;29;20303;-66
2023/05/09 08:06:42;;;;;;;1.87;1.60;;;18.00;99.90;;;;;;4893685;29;20759;-65
2023/05/09 08:09:10;;;;;;;3.03;1.60;;;18.00;99.90;;;;;;4892819;29;20255;-70
2023/05/09 08:11:37;;;;;;;1.80;1.27;;;18.40;99.90;;;;;;4896427;29;20215;-63
2023/05/09 08:14:04;;;;;;;1.20;1.20;;;18.60;99.90;;;;;;4884618;29;20282;-65
2023/05/09 08:16:31;;;;;;;1.77;1.67;;;18.50;99.90;;;;;;4893339;29;20203;-61
2023/05/09 08:18:58;;;;;;;1.67;1.57;;;18.40;99.90;;;;;;4889647;29;21062;-63
2023/05/09 08:21:26;;;;;;;2.00;1.90;;;18.40;99.90;;;;;;4893393;29;20704;-63
2023/05/09 08:23:53;;;;;;;1.20;1.20;;;18.60;99.90;;;;;;4893835;29;20697;-65
2023/05/09 08:26:21;;;;;;;2.07;1.70;;;18.80;99.90;;;;;;4894062;29;20393;-65
2023/05/09 08:28:48;;;;;;;1.40;1.40;;;19.00;99.90;;;;;;4898635;29;20232;-68
2023/05/09 08:31:15;;;;;;;3.83;2.10;;;19.20;99.90;;;;;;4885148;29;20219;-65
2023/05/09 08:33:42;;;;;;;2.20;2.10;;;19.50;99.90;;;;;;4895352;29;20245;-65
2023/05/09 08:36:09;;;;;;;2.47;2.33;;;19.90;99.90;;;;;;4894692;29;20271;-65
2023/05/09 08:38:39;;;;;;;1.53;1.53;;;20.10;99.90;;;;;;4894673;29;20207;-65
2023/05/09 08:41:06;;;;;;;1.77;1.77;;;20.40;99.90;;;;;;4891267;29;20204;-62
2023/05/09 08:43:34;;;;;;;3.23;1.90;;;20.50;99.90;;;;;;4892139;29;20295;-65
2023/05/09 08:46:06;;;;;;;3.13;2.10;;;20.80;99.90;;;;;;4897982;29;20238;-67
2023/05/09 08:48:36;;;;;;;2.53;2.33;;;20.60;99.90;;;;;;4894397;29;20199;-68
2023/05/09 08:51:03;;;;;;;3.07;2.77;;;20.50;99.90;;;;;;4884995;29;20230;-67
2023/05/09 08:53:31;;;;;;;4.03;2.10;;;20.90;99.90;;;;;;4892103;29;20586;-68
2023/05/09 08:56:01;;;;;;;1.57;1.57;;;21.50;99.90;;;;;;4903084;29;20205;-65
2023/05/09 08:58:28;;;;;;;1.80;1.77;;;22.50;99.90;;;;;;4897630;29;20199;-68
2023/05/09 09:00:56;;;;;;;1.67;1.67;;;23.20;99.90;;;;;;4894279;29;20280;-67
2023/05/09 09:03:25;;;;;;;2.93;1.87;;;24.00;99.90;;;;;;4894888;29;20588;-70
2023/05/09 09:05:53;;;;;;;2.17;2.03;;;24.80;99.90;;;;;;4894680;29;20684;-67
2023/05/09 09:08:21;;;;;;;1.50;1.40;;;25.30;99.90;;;;;;4912742;29;20203;-66
2023/05/09 09:10:48;;;;;;;1.97;1.97;;;25.70;99.90;;;;;;4896133;29;20281;-70
2023/05/09 09:13:18;;;;;;;1.80;1.80;;;25.70;99.90;;;;;;4896913;29;20836;-70
2023/05/09 09:15:46;;;;;;;2.30;1.83;;;26.20;99.90;;;;;;4895583;29;20286;-69
2023/05/09 09:18:20;;;;;;;5.07;4.77;;;26.00;99.90;;;;;;4890326;29;20207;-68
2023/05/09 09:20:51;;;;;;;5.23;5.03;;;26.00;99.90;;;;;;4891027;29;20204;-69
2023/05/09 09:23:20;;;;;;;4.40;4.10;;;26.30;99.90;;;;;;4895608;29;20282;-70
2023/05/09 09:25:48;;;;;;;4.73;4.53;;;26.50;99.90;;;;;;4895125;29;20227;-70
2023/05/09 09:28:16;;;;;;;3.97;3.77;;;25.60;99.90;;;;;;4900214;29;20210;-66
2023/05/09 09:30:44;;;;;;;4.33;4.07;;;25.00;99.90;;;;;;4912236;29;20242;-65
2023/05/09 09:33:19;;;;;;;4.63;4.30;;;24.80;99.90;;;;;;4913479;29;20282;-66
2023/05/09 09:35:48;;;;;;;4.33;4.23;;;24.90;99.90;;;;;;4895561;29;20195;-66
2023/05/09 09:38:16;;;;;;;3.57;3.47;;;25.30;99.90;;;;;;4895910;29;20534;-68
2023/05/09 09:40:49;;;;;;;4.17;3.97;;;25.70;99.90;;;;;;4910466;29;20211;-67
2023/05/09 09:43:18;;;;;;;5.07;4.77;;;26.20;99.90;;;;;;4889221;29;20223;-68
2023/05/09 09:45:49;;;;;;;4.73;4.53;;;25.90;99.90;;;;;;4899229;29;20232;-69
2023/05/09 09:48:15;;;;;;;4.93;4.73;;;26.20;99.90;;;;;;4895113;29;20286;-66
2023/05/09 09:50:42;;;;;;;4.67;4.47;;;26.70;99.90;;;;;;4892697;29;20275;-69
2023/05/09 09:53:09;;;;;;;4.27;4.17;;;27.00;99.90;;;;;;4893554;29;20227;-67
2023/05/09 09:55:36;;;;;;;4.30;4.10;;;26.50;99.90;;;;;;4893818;29;20251;-65
2023/05/09 09:58:03;;;;;;;4.53;4.43;;;26.70;99.90;;;;;;4893662;29;20204;-69
2023/05/09 10:00:32;;;;;;;5.40;5.10;;;26.70;99.90;;;;;;4894772;29;20862;-68
2023/05/09 10:02:59;;;;;;;5.80;5.50;;;27.10;99.90;;;;;;4882491;29;20576;-66
2023/05/09 10:05:28;;;;;;;6.27;5.87;;;26.70;99.90;;;;;;4897942;29;20237;-64
2023/05/09 10:07:57;;;;;;;6.20;5.70;;;26.40;99.90;;;;;;4897503;29;20247;-64
2023/05/09 10:10:27;;;;;;;5.13;4.83;;;26.40;99.90;;;;;;4896906;29;20215;-66
2023/05/09 10:12:57;;;;;;;5.20;4.90;;;25.80;99.90;;;;;;4900554;29;20684;-68
2023/05/09 10:15:24;;;;;;;6.73;6.20;;;25.10;99.90;;;;;;4895738;29;20207;-64
2023/05/09 10:17:56;;;;;;;6.30;5.90;;;25.30;99.90;;;;;;4895289;29;20231;-58
2023/05/09 10:20:23;;;;;;;5.30;5.00;;;24.50;99.90;;;;;;4897900;29;20203;-60
2023/05/09 10:22:54;;;;;;;5.77;5.47;;;24.70;99.90;;;;;;4897929;29;20207;-67
2023/05/09 10:25:25;;;;;;;6.40;5.90;;;25.10;99.90;;;;;;4894270;29;20208;-71
2023/05/09 10:27:56;;;;;;;4.77;4.57;;;25.00;99.90;;;;;;4897251;29;20227;-70
2023/05/09 10:30:28;;;;;;;5.07;4.73;;;25.30;99.90;;;;;;4896294;29;20199;-65
2023/05/09 10:33:01;;;;;;;3.80;3.50;;;25.60;99.90;;;;;;4897633;29;20214;-70
2023/05/09 10:35:33;;;;;;;4.20;4.07;;;25.60;99.90;;;;;;4895491;29;20199;-60
2023/05/09 10:38:01;;;;;;;3.40;3.20;;;25.10;99.90;;;;;;4895290;29;20200;-60
2023/05/09 10:40:28;;;;;;;2.70;2.60;;;24.40;99.90;;;;;;4897701;29;20268;-60
2023/05/09 10:42:55;;;;;;;2.63;1.67;;;24.50;99.90;;;;;;4896498;29;20254;-61
2023/05/09 10:45:23;;;;;;;3.00;2.90;;;24.80;99.90;;;;;;4903050;29;20547;-60
2023/05/09 10:47:52;;;;;;;2.93;2.90;;;24.80;99.90;;;;;;4897181;29;20224;-62
2023/05/09 10:50:21;;;;;;;2.00;2.00;;;24.70;99.90;;;;;;4895297;29;20303;-62
2023/05/09 10:53:10;;;;;;;2.30;2.30;;;24.50;99.90;;;;;;4896554;29;20267;-62
2023/05/09 10:55:38;;;;;;;1.80;1.80;;;24.00;99.90;;;;;;4893138;29;20210;-59
2023/05/09 10:58:23;;;;;;;1.50;1.50;;;23.80;99.90;;;;;;4894511;29;20275;-63
2023/05/09 11:00:51;;;;;;;1.00;1.00;;;23.90;99.90;;;;;;4895494;29;20207;-65
2023/05/09 11:03:19;;;;;;;1.43;1.43;;;23.50;99.90;;;;;;4893351;29;20223;-62
2023/05/09 11:05:48;;;;;;;0.97;0.97;;;23.50;99.90;;;;;;4894915;29;20210;-62
2023/05/09 11:08:19;;;;;;;0.87;0.87;;;23.60;99.90;;;;;;4894648;29;20275;-66
2023/05/09 11:10:47;;;;;;;1.20;1.10;;;23.90;99.90;;;;;;4897958;29;20207;-65
2023/05/09 11:13:17;;;;;;;0.90;0.87;;;23.60;99.90;;;;;;4897479;29;20283;-64
2023/05/09 11:16:03;;;;;;;1.10;1.10;;;23.60;99.90;;;;;;4899390;29;20612;-62
2023/05/09 11:18:31;;;;;;;1.00;1.00;;;23.30;99.90;;;;;;4896656;29;20673;-63
2023/05/09 11:21:06;;;;;;;0.70;0.70;;;23.20;99.90;;;;;;4891784;29;21057;-65
2023/05/09 11:23:34;;;;;;;1.90;0.77;;;22.90;99.90;;;;;;4894321;29;20282;-65
2023/05/09 11:26:05;;;;;;;1.37;0.77;;;23.00;99.90;;;;;;4896591;29;20199;-66
2023/05/09 11:28:34;;;;;;;1.63;1.00;;;22.80;99.90;;;;;;4895741;29;20663;-65
2023/05/09 11:31:11;;;;;;;0.70;0.70;;;22.70;99.90;;;;;;4896242;29;20621;-67
2023/05/09 11:33:39;;;;;;;0.70;0.70;;;22.70;99.90;;;;;;4894622;29;20222;-59
2023/05/09 11:36:18;;;;;;;0.73;0.73;;;22.80;99.90;;;;;;4896105;29;20263;-65
2023/05/09 11:38:46;;;;;;;0.90;0.90;;;22.70;99.90;;;;;;4901941;29;20227;-58
2023/05/09 11:41:13;;;;;;;0.87;0.83;;;22.70;99.90;;;;;;4896134;29;20242;-67
2023/05/09 11:43:42;;;;;;;0.93;0.93;;;22.70;99.90;;;;;;4890509;29;20709;-70
2023/05/09 11:46:08;;;;;;;1.27;0.93;;;22.50;99.90;;;;;;4896100;29;20846;-67
2023/05/09 11:48:39;;;;;;;1.10;1.10;;;22.60;99.90;;;;;;4894975;29;20227;-65
2023/05/09 11:51:06;;;;;;;1.10;1.10;;;22.50;99.90;;;;;;4896064;29;20207;-64
2023/05/09 11:53:43;;;;;;;1.30;1.20;;;22.70;99.90;;;;;;4894282;29;20278;-62
2023/05/09 11:56:10;;;;;;;1.30;1.30;;;22.90;99.90;;;;;;4884175;29;20218;-66
2023/05/09 11:58:38;;;;;;;1.00;0.83;;;22.90;99.90;;;;;;4882259;29;20294;-64
2023/05/09 12:01:06;;;;;;;1.07;1.07;;;23.00;99.90;;;;;;4883693;29;20635;-64
2023/05/09 12:03:33;;;;;;;0.93;0.83;;;22.80;99.90;;;;;;4879699;29;20314;-64
2023/05/09 12:06:00;;;;;;;0.70;0.70;;;22.60;99.90;;;;;;4896021;29;20670;-67
2023/05/09 12:08:29;;;;;;;1.40;1.30;;;22.30;99.90;;;;;;4879777;29;20287;-61
2023/05/09 12:11:08;;;;;;;4.30;1.33;;;22.00;99.90;;;;;;4884235;29;20669;-68
2023/05/09 12:13:35;;;;;;;0.90;0.90;;;22.00;99.90;;;;;;4881994;29;20252;-67
2023/05/09 12:16:02;;;;;;;1.50;1.40;;;22.20;99.90;;;;;;4894597;29;20348;-66
2023/05/09 12:18:29;;;;;;;2.93;1.50;;;22.20;99.90;;;;;;4885648;29;20720;-62
2023/05/09 12:20:57;;;;;;;2.33;1.70;;;22.20;99.90;;;;;;4885708;29;20247;-64
2023/05/09 12:23:24;;;;;;;1.37;1.37;;;22.50;99.90;;;;;;4880186;29;20298;-64
2023/05/09 12:25:54;;;;;;;2.20;2.10;;;22.70;99.90;;;;;;4882923;29;20216;-63
2023/05/09 12:28:23;;;;;;;2.43;2.33;;;22.70;99.90;;;;;;4882306;29;20234;-61
2023/05/09 12:30:50;;;;;;;1.90;1.80;;;22.60;99.90;;;;;;4888115;29;20234;-64
2023/05/09 12:33:20;;;;;;;2.50;1.57;;;22.50;99.90;;;;;;4883334;29;20227;-65
2023/05/09 12:35:48;;;;;;;1.43;1.43;;;22.40;99.90;;;;;;4879450;29;20335;-66
2023/05/09 12:38:20;;;;;;;1.20;1.10;;;22.40;99.90;;;;;;4886842;29;20273;-65
2023/05/09 12:40:48;;;;;;;1.50;1.40;;;22.00;99.90;;;;;;4887752;29;20207;-64
2023/05/09 12:43:15;;;;;;;1.93;1.83;;;22.20;99.90;;;;;;4879942;29;20227;-62
2023/05/09 12:45:43;;;;;;;1.50;1.50;;;22.30;99.90;;;;;;4880822;29;20671;-62
2023/05/09 12:48:10;;;;;;;1.57;1.57;;;22.30;99.90;;;;;;4881789;29;20224;-61
2023/05/09 12:50:37;;;;;;;1.63;1.50;;;22.30;99.90;;;;;;4883282;29;20208;-67
2023/05/09 12:53:05;;;;;;;1.73;1.63;;;22.30;99.90;;;;;;4877789;29;20204;-66
2023/05/09 12:55:40;;;;;;;1.63;1.63;;;22.30;99.90;;;;;;4877046;29;20207;-63